Races

My races   Performance graphs   Race day checklist
Year Type Subtype Show
Print

Date
Name
Race
Groups
Type
Total
Distance
Total
Time
Overall
Rank
Age Group
Rank
Pace
2014-09-06Diamondman Challenge Half Iron TriathlonTriathlon 70.3 miles6h 47m 71%29%
2014-08-03Culpeper International TriathlonTriathlon 31.15 miles3h 11m 29s 65%57%
2013-12-14Celtic Solstice Five MilerRun 5.04 miles48m 52s 52%32%
2013-11-24Zoo ZoomRun 4.9 miles49m 55s 43%27%
2013-09-15Sandman TriathlonTriathlon 18.3 miles1h 30m 45s 47%20%
2013-08-25North East TriathlonTriathlon 30.31 miles3h 04m 49s 100%
2013-08-04PurpleSwim Baltimore - 2 MileSwim 2 miles1h 07m 54s 60%50%
2013-07-14Maryland Olympic DuathlonDuathlon 32.38 miles2h 40m 47s 57%62%
2013-06-23Celebrating Heroes TriathlonTriathlon 19.81 miles1h 58m 04s 40%16%
2013-05-27Jeremy's Run 10KRun 6.21 miles55m 03s 41%12%
2013-05-05Rocketman Florida Triathlon - International + CourseTriathlon 41.13 miles3h 45m 05s 49%27%
2013-03-16B&A Trail Half MarathonRun Half Marathon13.1 miles2h 05m 32s 50%32%
2012-12-15Celtic SolsticeRun 5 Mile5 miles42m 37s 28%12%
2012-11-24MCRRC Turkey Burnoff 10 MilerRun 10 miles1h 36m 16s
2012-10-14Waterman's Sprint TriathlonTriathlon Sprint19.95 miles1h 46m 18s 25%
2012-09-16Sandman Triathlon HistoricalTriathlon 17.67 miles1h 37m 18s 36%17%
2012-08-19Lums Pond TriathlonTriathlon Sprint23.18 miles1h 55m 13s 60%43%
2012-08-05Fort Ritchie Triathlon - Olympic CourseTriathlon Olympic30.75 miles
2012-05-28Jeremy's RunRun 10k6.2 miles56m 37s 33%25%
2012-05-20Columbia TriathlonTriathlon Olympic32.62 miles3h 05m 20s 59%40%
2011-12-17Celtic Solstice 5 Mile RunRun 5 Mile5.07 miles45m 54s 44%23%
2011-10-29Seaside 10 MilerRun 10 Mile10 miles1h 35m 47s 48%46%
2011-09-18Sandman TriathlonDuathlon Other17.83 miles1h 17m 46s 48%30%
2011-08-14North East TriathlonTriathlon Olympic17.61 miles2h 00m 55s 82%60%
2011-06-19South Carroll Tri-to-Win Sprint Triathlon HistoricalTriathlon Sprint17.14 miles1h 27m 47s 15%
2011-05-22Columbia Triathlon HistoricalTriathlon Olympic32.62 miles3h 12m 13s 65%41%
2011-04-17Rumpus in Bumpass SprintTriathlon Sprint15.58 miles1h 35m 33s 45%
2011-04-03Wild Woman 8k Run/WalkRun 8k4.97 miles54m 25s
2010-12-18Celtic Solstice 5-milerRun 5 Mile5.11 miles48m 10s 49%37%
2010-10-02Osprey Sprint Triathlon HistoricalTriathlon 18.72 miles1h 35m 41s 28%22%
2010-08-22Aflac Iron Girl Columbia Women's Triathlon HistoricalTriathlon Sprint21.52 miles2h 06m 42s 19%21%
2010-08-15North East Triathlon  (draft) HistoricalTriathlon Olympic30.34 miles
2010-07-25Rocketts Landing AquabikeAquabike 25.93 miles2h 06m 21s 75%
2010-06-27Celebration Sprint Triathlon HistoricalTriathlon Sprint21.52 miles2h 10m 20s 62%
2010-05-02Bassman Spring AquabikeAquabike 29.62 miles2h 01m 12s 73%80%
2009-09-13Patriot's International HistoricalTriathlon Olympic31.1 miles99%100%
2009-08-23Iron Girl Columbia Women's TriathlonTriathlon Sprint21.52 miles2h 08m 36s 21%25%
2009-07-12Philadelphia Women's Triathlon HistoricalDuathlon 22.01 miles1h 46m 55s 33%35%
2009-06-07Tour de Cure  (draft) Cycle Other62.14 miles
2009-05-25Jeremy's RunRun 5k3.11 miles27m 06s 14%
2009-05-10Kinetic Sprint HistoricalTriathlon Sprint21.11 miles1h 46m 21s 36%38%
2009-04-18Clarksburg 5k RunRun 5k3.1 miles26m 43s 11%
2008-10-18Hagerstown DuathlonDuathlon 15.1 miles1h 25m 16s 67%
2008-08-17North East TriathlonTriathlon Sprint19.36 miles1h 52m 31s 25%60%
2008-07-20Three Sports TriathlonTriathlon Sprint15.3 miles1h 19m 28s 41%36%
2008-06-08Tour de CureCycle Tour62.82 miles4h 26m 27s
2008-05-26Sue and Connie's RunRun 4 Mile4 miles36m 24s 52%67%
2008-04-20Kinetic Sprint, Race #4Triathlon Sprint21.58 miles2h 00m 09s 59%54%
2007-08-19Iron Girl Columbia Women's Triathlon HistoricalTriathlon Sprint21.52 miles2h 22m 08s 63%
2007-07-22Three Sports Triathlon HistoricalTriathlon Sprint15.2 miles1h 28m 18s 71%75%